createdAt,value
2023-05-14T00:04:07.297Z,12.55
2023-05-14T00:09:08.784Z,12.57
2023-05-14T00:14:10.270Z,12.39
2023-05-14T00:19:11.792Z,12.34
2023-05-14T00:24:13.311Z,12.20
2023-05-14T00:29:14.778Z,12.08
2023-05-14T00:34:16.159Z,11.97
2023-05-14T00:39:17.580Z,11.76
2023-05-14T00:44:19.054Z,11.72
2023-05-14T00:49:21.132Z,11.67
2023-05-14T00:54:22.833Z,11.58
2023-05-14T00:59:24.256Z,11.60
2023-05-14T01:04:25.851Z,11.56
2023-05-14T01:09:42.846Z,11.54
2023-05-14T01:15:09.270Z,11.53
2023-05-14T01:20:11.560Z,11.59
2023-05-14T01:25:13.042Z,11.46
2023-05-14T01:30:22.999Z,11.33
2023-05-14T01:35:27.507Z,11.20
2023-05-14T01:40:31.213Z,11.20
2023-05-14T01:45:35.692Z,11.09
2023-05-14T01:50:37.162Z,11.04
2023-05-14T01:55:38.696Z,10.92
2023-05-14T02:00:40.097Z,10.85
2023-05-14T02:05:41.518Z,10.86
2023-05-14T02:10:42.928Z,10.80
2023-05-14T02:15:44.332Z,10.67
2023-05-14T02:20:46.636Z,10.54
2023-05-14T02:25:48.026Z,10.39
2023-05-14T02:30:49.491Z,10.34
2023-05-14T02:35:50.915Z,10.40
2023-05-14T02:40:52.426Z,10.23
2023-05-14T02:45:53.906Z,10.20
2023-05-14T02:50:55.381Z,10.12
2023-05-14T02:55:56.800Z,10.06
2023-05-14T03:00:58.787Z,10.00
2023-05-14T03:06:00.599Z,9.82
2023-05-14T03:11:02.607Z,9.78
2023-05-14T03:16:04.168Z,9.65
2023-05-14T03:21:05.702Z,9.63
2023-05-14T03:26:07.192Z,9.60
2023-05-14T03:31:08.674Z,9.51
2023-05-14T03:36:10.189Z,9.48
2023-05-14T03:41:11.780Z,9.43
2023-05-14T03:46:13.299Z,9.39
2023-05-14T03:51:14.730Z,9.29
2023-05-14T03:56:16.173Z,9.27
2023-05-14T04:01:17.574Z,9.27
2023-05-14T04:06:19.391Z,9.16
2023-05-14T04:11:21.600Z,9.17
2023-05-14T04:16:23.295Z,9.16
2023-05-14T04:21:24.866Z,9.20
2023-05-14T04:26:26.562Z,9.19
2023-05-14T04:31:28.164Z,9.16
2023-05-14T04:36:29.603Z,9.29
2023-05-14T04:41:31.005Z,9.19
2023-05-14T04:46:32.508Z,9.44
2023-05-14T04:51:34.006Z,9.52
2023-05-14T04:56:35.574Z,9.52
2023-05-14T05:01:37.114Z,9.42
2023-05-14T05:06:38.707Z,9.51
2023-05-14T05:11:40.095Z,9.50
2023-05-14T05:16:41.553Z,9.42
2023-05-14T05:21:43.025Z,9.47
2023-05-14T05:26:44.434Z,9.62
2023-05-14T05:31:46.212Z,9.78
2023-05-14T05:36:47.700Z,9.82
2023-05-14T05:41:49.274Z,9.92
2023-05-14T05:46:51.121Z,10.30
2023-05-14T05:51:52.666Z,10.94
2023-05-14T05:56:54.109Z,11.13
2023-05-14T06:01:55.657Z,11.48
2023-05-14T06:06:57.620Z,11.79
2023-05-14T06:11:59.043Z,12.11
2023-05-14T06:17:00.889Z,11.88
2023-05-14T06:22:02.852Z,11.86
2023-05-14T06:27:04.365Z,11.78
2023-05-14T06:32:06.412Z,11.66
2023-05-14T06:37:09.447Z,12.13
2023-05-14T06:42:10.916Z,12.70
2023-05-14T06:47:12.386Z,12.56
2023-05-14T06:52:13.775Z,13.58
2023-05-14T06:57:15.270Z,13.75
2023-05-14T07:02:16.728Z,13.41
2023-05-14T07:07:20.736Z,13.77
2023-05-14T07:12:22.258Z,13.60
2023-05-14T07:17:24.262Z,14.69
2023-05-14T07:22:25.836Z,14.28
2023-05-14T07:27:27.215Z,14.34
2023-05-14T07:32:28.623Z,14.89
2023-05-14T07:37:30.171Z,15.02
2023-05-14T07:42:36.396Z,15.28
2023-05-14T07:47:39.272Z,15.48
2023-05-14T07:52:40.820Z,15.63
2023-05-14T07:57:42.290Z,16.50
2023-05-14T08:02:44.739Z,16.54
2023-05-14T08:07:46.453Z,16.65
2023-05-14T08:12:47.953Z,17.02
2023-05-14T08:17:49.460Z,17.48
2023-05-14T08:22:50.870Z,17.73
2023-05-14T08:27:54.094Z,17.96
2023-05-14T08:32:55.569Z,18.26
2023-05-14T08:37:57.153Z,18.50
2023-05-14T08:42:58.946Z,18.64
2023-05-14T08:48:02.092Z,18.75
2023-05-14T08:53:03.712Z,19.10
2023-05-14T08:58:05.129Z,19.09
2023-05-14T09:03:07.122Z,18.75
2023-05-14T09:08:08.570Z,19.24
2023-05-14T09:13:10.253Z,19.56
2023-05-14T09:18:11.856Z,19.35
2023-05-14T09:23:13.586Z,19.41
2023-05-14T09:28:17.263Z,19.55
2023-05-14T09:33:31.764Z,19.91
2023-05-14T09:38:33.794Z,20.27
2023-05-14T09:43:36.424Z,20.21
2023-05-14T09:48:38.078Z,20.58
2023-05-14T09:53:41.238Z,20.66
2023-05-14T09:58:42.717Z,21.04
2023-05-14T10:03:44.466Z,21.18
2023-05-14T10:08:48.582Z,21.41
2023-05-14T10:14:07.664Z,21.18
2023-05-14T10:19:11.071Z,21.67
2023-05-14T10:24:13.027Z,21.92
2023-05-14T10:29:14.733Z,21.73
2023-05-14T10:34:38.264Z,22.06
2023-05-14T10:40:06.501Z,22.49
2023-05-14T10:45:10.807Z,22.11
2023-05-14T10:50:16.331Z,23.21
2023-05-14T10:55:17.855Z,23.58
2023-05-14T11:00:19.644Z,23.43
2023-05-14T11:05:21.203Z,23.05
2023-05-14T11:10:23.989Z,22.87
2023-05-14T11:15:26.815Z,22.69
2023-05-14T11:20:28.888Z,22.47
2023-05-14T11:25:30.708Z,21.43
2023-05-14T11:30:32.243Z,22.14
2023-05-14T11:35:33.676Z,22.28
2023-05-14T11:40:36.225Z,22.23
2023-05-14T11:45:37.842Z,21.46
2023-05-14T11:50:40.688Z,21.60
2023-05-14T11:55:42.294Z,22.04
2023-05-14T12:00:45.596Z,22.07
2023-05-14T12:06:01.148Z,22.09
2023-05-14T12:11:02.664Z,21.73
2023-05-14T12:16:05.402Z,22.41
2023-05-14T12:21:09.849Z,21.79
2023-05-14T12:26:12.386Z,22.29
2023-05-14T12:31:16.593Z,22.78
2023-05-14T12:36:21.652Z,22.53
2023-05-14T12:41:23.764Z,22.88
2023-05-14T12:46:27.065Z,21.81
2023-05-14T12:51:28.737Z,21.43
2023-05-14T12:56:31.676Z,21.30
2023-05-14T13:01:33.336Z,21.10
2023-05-14T13:06:35.125Z,21.20
2023-05-14T13:11:36.955Z,21.17
2023-05-14T13:16:38.713Z,21.52
2023-05-14T13:21:40.331Z,21.23
2023-05-14T13:26:41.753Z,21.51
2023-05-14T13:31:43.221Z,21.66
2023-05-14T13:36:44.779Z,21.90
2023-05-14T13:41:46.389Z,21.63
2023-05-14T13:46:48.135Z,22.11
2023-05-14T13:51:49.793Z,21.60
2023-05-14T13:56:51.990Z,21.77
2023-05-14T14:01:53.512Z,21.46
2023-05-14T14:06:55.462Z,21.07
2023-05-14T14:16:58.394Z,21.39
2023-05-14T14:21:59.862Z,21.18
2023-05-14T14:27:02.409Z,21.21
2023-05-14T14:32:04.382Z,21.20
2023-05-14T14:37:06.287Z,21.12
2023-05-14T14:42:07.796Z,20.80
2023-05-14T14:47:09.240Z,20.59
2023-05-14T14:52:10.696Z,20.77
2023-05-14T14:57:12.146Z,20.46
2023-05-14T15:02:13.925Z,20.39
2023-05-14T15:07:17.330Z,20.55
2023-05-14T15:12:19.137Z,19.99
2023-05-14T15:17:20.864Z,20.03
2023-05-14T15:22:22.453Z,19.85
2023-05-14T15:27:23.844Z,19.76
2023-05-14T15:32:27.050Z,19.72
2023-05-14T15:37:35.663Z,19.55
2023-05-14T15:42:38.741Z,19.61
2023-05-14T15:47:41.797Z,19.54
2023-05-14T15:52:43.287Z,19.46
2023-05-14T15:57:44.751Z,19.44
2023-05-14T16:02:46.296Z,19.43
2023-05-14T16:07:47.761Z,19.23
2023-05-14T16:12:49.199Z,19.10
2023-05-14T16:17:50.737Z,19.09
2023-05-14T16:22:52.462Z,18.87
2023-05-14T16:27:54.359Z,18.90
2023-05-14T16:32:55.766Z,18.88
2023-05-14T16:37:57.261Z,18.68
2023-05-14T16:42:58.703Z,18.50
2023-05-14T16:48:01.284Z,18.43
2023-05-14T16:53:02.942Z,18.45
2023-05-14T16:58:04.591Z,18.43
2023-05-14T17:03:07.102Z,18.37
2023-05-14T17:08:08.600Z,18.17
2023-05-14T17:13:10.051Z,18.17
2023-05-14T17:18:12.091Z,18.01
2023-05-14T17:23:13.748Z,17.89
2023-05-14T17:28:15.276Z,17.78
2023-05-14T17:33:17.118Z,17.70
2023-05-14T17:38:18.557Z,17.74
2023-05-14T17:43:19.974Z,17.69
2023-05-14T17:48:22.702Z,17.59
2023-05-14T17:53:24.178Z,17.48
2023-05-14T17:58:25.819Z,17.46
2023-05-14T18:03:27.538Z,17.34
2023-05-14T18:08:29.118Z,17.18
2023-05-14T18:13:30.613Z,16.93
2023-05-14T18:18:32.154Z,16.74
2023-05-14T18:23:33.689Z,16.65
2023-05-14T18:28:36.248Z,16.58
2023-05-14T18:33:37.726Z,16.31
2023-05-14T18:38:40.725Z,16.24
2023-05-14T18:43:42.208Z,15.99
2023-05-14T18:48:43.824Z,15.88
2023-05-14T18:53:45.356Z,15.57
2023-05-14T18:58:49.505Z,15.40
2023-05-14T19:03:52.929Z,15.24
2023-05-14T19:08:54.584Z,15.05
2023-05-14T19:13:57.120Z,14.98
2023-05-14T19:18:58.752Z,14.85
2023-05-14T19:24:00.640Z,14.69
2023-05-14T19:29:02.305Z,14.52
2023-05-14T19:34:03.992Z,14.21
2023-05-14T19:39:05.970Z,14.08
2023-05-14T19:44:07.785Z,14.01
2023-05-14T19:49:09.323Z,13.76
2023-05-14T19:54:11.109Z,13.53
2023-05-14T19:59:15.724Z,13.56
2023-05-14T20:04:17.915Z,13.37
2023-05-14T20:09:22.202Z,13.24
2023-05-14T20:14:23.872Z,13.23
2023-05-14T20:19:26.735Z,13.04
2023-05-14T20:24:28.670Z,12.92
2023-05-14T20:29:30.319Z,12.94
2023-05-14T20:34:31.916Z,12.82
2023-05-14T20:39:33.562Z,12.67
2023-05-14T20:44:36.415Z,12.58
2023-05-14T20:49:37.936Z,12.51
2023-05-14T20:54:39.392Z,12.51
2023-05-14T20:59:41.120Z,12.41
2023-05-14T21:04:42.932Z,12.27
2023-05-14T21:09:46.493Z,12.29
2023-05-14T21:14:47.991Z,12.23
2023-05-14T21:19:49.610Z,12.11
2023-05-14T21:24:51.396Z,12.01
2023-05-14T21:29:53.158Z,12.07
2023-05-14T21:34:54.710Z,12.04
2023-05-14T21:39:56.438Z,11.98
2023-05-14T21:44:58.052Z,11.92
2023-05-14T21:49:59.706Z,11.81
2023-05-14T21:55:01.445Z,11.73
2023-05-14T22:00:05.384Z,11.67
2023-05-14T22:05:07.081Z,11.60
2023-05-14T22:10:10.138Z,11.58
2023-05-14T22:15:12.385Z,11.35
2023-05-14T22:20:14.305Z,11.39
2023-05-14T22:25:15.866Z,11.42
2023-05-14T22:30:17.360Z,11.38
2023-05-14T22:35:18.962Z,11.27
2023-05-14T22:40:20.563Z,11.12
2023-05-14T22:45:22.249Z,11.07
2023-05-14T22:50:24.297Z,11.12
2023-05-14T22:55:26.076Z,11.00
2023-05-14T23:00:28.032Z,10.99
2023-05-14T23:05:29.514Z,10.96
2023-05-14T23:10:31.231Z,10.90
2023-05-14T23:15:32.990Z,10.84
2023-05-14T23:20:34.396Z,10.86
2023-05-14T23:25:35.940Z,10.81
2023-05-14T23:30:37.375Z,10.70
2023-05-14T23:35:39.296Z,10.63
2023-05-14T23:40:40.764Z,10.61
2023-05-14T23:45:42.309Z,10.55
2023-05-14T23:50:44.039Z,10.49
2023-05-14T23:55:45.508Z,10.55
